Time;durP1;ratioP1;P1;durP2;ratioP2;P2;SDS_P1;SDS_P2;PMS_P1;PMS_P2;Temp;Humidity;BMP_temperature;BMP_pressure;BME280_temperature;BME280_humidity;BME280_pressure;Samples;Min_cycle;Max_cycle;Signal;HPM_P1;HPM_P2
2022/04/10 00:01:25;;;;;;;2.95;1.85;;;3.80;99.90;;;;;;4940240;29;20031;-88
2022/04/10 00:03:51;;;;;;;2.72;1.55;;;3.80;99.90;;;;;;4934587;29;20028;-88
2022/04/10 00:06:16;;;;;;;2.13;1.40;;;3.70;99.90;;;;;;4924863;29;20031;-88
2022/04/10 00:08:42;;;;;;;8.02;2.17;;;3.70;99.90;;;;;;4938579;29;20038;-87
2022/04/10 00:11:07;;;;;;;3.35;1.70;;;3.60;99.90;;;;;;4936766;29;20031;-88
2022/04/10 00:13:33;;;;;;;4.85;1.83;;;3.60;99.90;;;;;;4929372;29;20059;-87
2022/04/10 00:15:59;;;;;;;4.07;1.40;;;3.60;99.90;;;;;;4943587;28;20058;-85
2022/04/10 00:18:24;;;;;;;3.50;1.80;;;3.60;99.90;;;;;;4938697;29;20442;-86
2022/04/10 00:20:50;;;;;;;5.60;1.98;;;3.60;99.90;;;;;;4952802;29;20075;-87
2022/04/10 00:23:15;;;;;;;6.93;1.92;;;3.60;99.90;;;;;;4939738;29;20047;-87
2022/04/10 00:25:41;;;;;;;2.78;1.77;;;3.60;99.90;;;;;;4939130;29;20034;-89
2022/04/10 00:28:08;;;;;;;2.13;1.90;;;3.60;99.90;;;;;;4955021;29;20031;-88
2022/04/10 00:30:33;;;;;;;8.60;2.65;;;3.60;99.90;;;;;;4942557;29;20397;-87
2022/04/10 00:33:00;;;;;;;2.88;1.65;;;3.60;99.90;;;;;;4938107;29;20086;-88
2022/04/10 00:35:25;;;;;;;2.58;1.80;;;3.60;99.90;;;;;;4941108;29;20511;-88
2022/04/10 00:37:51;;;;;;;6.55;1.73;;;3.70;99.90;;;;;;4941979;29;20027;-88
2022/04/10 00:40:16;;;;;;;2.88;1.60;;;3.80;99.90;;;;;;4933036;29;20019;-87
2022/04/10 00:42:48;;;;;;;3.05;1.60;;;3.80;99.90;;;;;;4931322;29;20102;-89
2022/04/10 00:45:14;;;;;;;2.23;1.70;;;3.90;99.90;;;;;;4923752;29;20035;-88
2022/04/10 00:47:39;;;;;;;5.30;1.92;;;4.00;99.90;;;;;;4942011;29;20274;-87
2022/04/10 00:50:07;;;;;;;6.32;1.73;;;4.00;99.90;;;;;;4924651;29;20034;-89
2022/04/10 00:52:34;;;;;;;2.65;1.67;;;4.10;99.90;;;;;;4934077;29;20039;-88
2022/04/10 00:55:00;;;;;;;4.72;1.73;;;4.10;99.90;;;;;;4941468;29;20028;-89
2022/04/10 00:57:25;;;;;;;3.78;2.03;;;4.10;99.90;;;;;;4938342;29;20111;-89
2022/04/10 00:59:52;;;;;;;2.20;1.70;;;4.10;99.90;;;;;;4942432;28;20032;-88
2022/04/10 01:02:18;;;;;;;4.57;1.90;;;4.10;99.90;;;;;;4938099;29;20016;-88
2022/04/10 01:04:46;;;;;;;4.22;1.88;;;4.10;99.90;;;;;;4950634;29;20626;-88
2022/04/10 01:07:13;;;;;;;4.18;2.03;;;4.10;99.90;;;;;;4960579;29;20007;-88
2022/04/10 01:09:39;;;;;;;3.47;1.67;;;4.10;99.90;;;;;;4953549;29;20435;-88
2022/04/10 01:12:07;;;;;;;4.05;2.20;;;4.10;99.90;;;;;;4929359;28;20490;-89
2022/04/10 01:14:33;;;;;;;3.35;1.70;;;4.10;99.90;;;;;;4935066;29;20110;-85
2022/04/10 01:16:59;;;;;;;2.80;1.90;;;4.10;99.90;;;;;;4932312;29;20038;-87
2022/04/10 01:19:25;;;;;;;3.22;2.25;;;4.00;99.90;;;;;;4932023;29;20019;-87
2022/04/10 01:21:53;;;;;;;5.53;2.47;;;4.10;99.90;;;;;;4932298;29;20126;-87
2022/04/10 01:24:19;;;;;;;3.80;2.35;;;4.10;99.90;;;;;;4946592;29;20040;-88
2022/04/10 01:26:45;;;;;;;3.85;2.00;;;4.10;99.90;;;;;;4925796;29;20174;-87
2022/04/10 01:29:13;;;;;;;4.57;2.50;;;4.10;99.90;;;;;;4952642;29;20067;-88
2022/04/10 01:31:44;;;;;;;3.53;2.05;;;4.00;99.90;;;;;;4940499;29;20023;-87
2022/04/10 01:34:16;;;;;;;2.78;2.22;;;4.00;99.90;;;;;;4951001;28;20479;-87
2022/04/10 01:36:43;;;;;;;3.08;2.20;;;4.00;99.90;;;;;;4926781;29;20035;-88
2022/04/10 01:39:11;;;;;;;3.35;2.05;;;4.00;99.90;;;;;;4941418;29;20367;-88
2022/04/10 01:41:37;;;;;;;4.97;2.30;;;4.00;99.90;;;;;;4934159;29;20019;-88
2022/04/10 01:44:07;;;;;;;4.97;1.95;;;4.00;99.90;;;;;;4922649;29;20024;-88
2022/04/10 01:46:34;;;;;;;5.18;2.10;;;4.00;99.90;;;;;;4927187;29;20098;-87
2022/04/10 01:49:00;;;;;;;4.07;2.42;;;3.90;99.90;;;;;;4938686;28;20032;-87
2022/04/10 01:51:26;;;;;;;4.10;2.33;;;3.90;99.90;;;;;;4946900;29;20504;-88
2022/04/10 01:54:25;;;;;;;6.43;2.60;;;3.90;99.90;;;;;;4984398;23;20053;-87
2022/04/10 01:57:26;;;;;;;3.80;2.20;;;3.80;99.90;;;;;;4957360;28;20053;-87
2022/04/10 03:24:12;;;;;;;7.78;4.32;;;3.50;99.90;;;;;;4966506;28;20098;-87
2022/04/10 03:33:30;;;;;;;7.22;4.75;;;3.50;99.90;;;;;;4959233;28;20093;-89
2022/04/10 03:36:15;;;;;;;7.10;4.22;;;3.60;99.90;;;;;;4956841;28;20045;-88
2022/04/10 03:39:19;;;;;;;9.07;4.45;;;3.60;99.90;;;;;;4937296;29;20053;-88
2022/04/10 03:42:47;;;;;;;8.90;4.88;;;3.60;99.90;;;;;;4892527;29;20064;-88
2022/04/10 03:49:15;;;;;;;6.57;4.57;;;3.60;99.90;;;;;;4921756;29;20441;-88
2022/04/10 03:51:50;;;;;;;7.25;4.90;;;3.50;99.90;;;;;;4899658;29;20029;-88
2022/04/10 03:55:15;;;;;;;9.88;5.30;;;3.60;99.90;;;;;;4914982;29;20035;-88
2022/04/10 04:05:25;;;;;;;9.00;4.80;;;3.60;99.90;;;;;;4879167;29;20434;-88
2022/04/10 04:08:21;;;;;;;8.57;4.72;;;3.60;99.90;;;;;;4879146;29;20124;-88
2022/04/10 04:11:32;;;;;;;6.85;4.80;;;3.60;99.90;;;;;;4855020;29;20042;-88
2022/04/10 04:14:43;;;;;;;8.00;5.05;;;3.50;99.90;;;;;;4860626;29;20503;-88
2022/04/10 04:35:17;;;;;;;11.25;5.07;;;3.50;99.90;;;;;;4877928;29;20108;-88
2022/04/10 04:42:25;;;;;;;7.20;5.20;;;3.40;99.90;;;;;;4884133;29;20119;-86
2022/04/10 04:45:57;;;;;;;8.52;5.55;;;3.40;99.90;;;;;;4843295;29;20026;-87
2022/04/10 05:06:32;;;;;;;9.05;4.88;;;3.40;99.90;;;;;;4763603;30;20100;-87
2022/04/10 05:20:17;;;;;;;7.18;4.90;;;3.70;99.90;;;;;;4692614;30;20076;-88
2022/04/10 05:34:48;;;;;;;9.52;5.05;;;4.00;99.90;;;;;;4688100;30;20078;-88
2022/04/10 06:02:43;;;;;;;6.45;4.25;;;4.30;99.90;;;;;;4727870;30;20107;-86
2022/04/10 06:09:37;;;;;;;6.40;4.00;;;4.40;99.90;;;;;;4824020;29;20050;-86
2022/04/10 06:16:34;;;;;;;9.45;4.15;;;4.50;99.90;;;;;;4862991;29;20125;-88
2022/04/10 06:20:09;;;;;;;7.95;4.50;;;4.50;99.90;;;;;;4822430;29;20207;-88
2022/04/10 06:26:53;;;;;;;5.15;4.03;;;4.60;99.90;;;;;;4741116;30;20054;-87
2022/04/10 06:29:53;;;;;;;7.28;4.18;;;4.60;99.90;;;;;;4768341;30;20111;-88
2022/04/10 06:32:20;;;;;;;5.35;3.88;;;4.60;99.90;;;;;;4811624;29;20579;-89
2022/04/10 06:39:04;;;;;;;7.03;4.10;;;4.70;99.90;;;;;;4790512;29;20049;-89
2022/04/10 06:41:59;;;;;;;5.28;3.88;;;4.80;99.90;;;;;;4911356;28;20031;-88
2022/04/10 06:44:40;;;;;;;6.97;3.72;;;4.80;99.90;;;;;;4940353;28;20101;-88
2022/04/10 06:47:06;;;;;;;4.85;3.53;;;4.80;99.90;;;;;;4940038;29;20027;-88
2022/04/10 06:49:31;;;;;;;6.88;3.92;;;4.90;99.90;;;;;;4944169;29;20448;-88
2022/04/10 06:51:57;;;;;;;5.35;3.50;;;4.80;99.90;;;;;;4954190;29;20619;-90
2022/04/10 06:54:22;;;;;;;6.95;3.65;;;4.90;99.90;;;;;;4929538;29;20039;-90
2022/04/10 06:56:48;;;;;;;6.15;3.67;;;4.90;99.90;;;;;;4937296;29;20050;-87
2022/04/10 06:59:20;;;;;;;7.30;3.78;;;4.90;99.90;;;;;;4944480;29;20047;-88
2022/04/10 07:01:45;;;;;;;8.00;3.87;;;5.00;99.90;;;;;;4955061;28;20482;-90
2022/04/10 07:04:11;;;;;;;5.63;3.83;;;5.00;99.90;;;;;;4943289;29;20019;-89
2022/04/10 07:06:36;;;;;;;5.32;3.50;;;5.10;99.90;;;;;;4940480;29;20454;-88
2022/04/10 07:09:02;;;;;;;7.10;3.95;;;5.20;99.90;;;;;;4955547;28;20088;-86
2022/04/10 07:11:28;;;;;;;6.40;3.85;;;5.40;99.90;;;;;;4963011;28;20019;-85
2022/04/10 07:13:53;;;;;;;5.53;3.60;;;5.60;99.90;;;;;;4958347;28;20095;-87
2022/04/10 07:16:19;;;;;;;5.40;3.20;;;5.70;99.90;;;;;;4960785;28;20054;-87
2022/04/10 07:18:44;;;;;;;7.55;3.33;;;5.90;99.90;;;;;;4960442;29;20054;-88
2022/04/10 07:21:10;;;;;;;4.45;2.83;;;6.10;99.90;;;;;;4950147;29;20139;-87
2022/04/10 07:23:41;;;;;;;4.75;3.13;;;6.30;99.90;;;;;;4949816;29;20050;-87
2022/04/10 07:26:08;;;;;;;4.80;3.30;;;6.50;99.90;;;;;;4937182;29;20031;-87
2022/04/10 07:28:34;;;;;;;5.97;2.90;;;6.60;99.90;;;;;;4937656;29;20031;-85
2022/04/10 07:31:00;;;;;;;3.78;2.63;;;6.60;99.90;;;;;;4930945;29;20067;-86
2022/04/10 07:33:26;;;;;;;4.30;2.53;;;6.70;99.90;;;;;;4940548;29;20098;-88
2022/04/10 07:35:52;;;;;;;5.00;2.45;;;6.70;99.90;;;;;;4937670;29;20038;-88
2022/04/10 07:38:18;;;;;;;5.22;2.80;;;6.70;99.90;;;;;;4943880;29;20079;-89
2022/04/10 07:40:44;;;;;;;3.58;2.78;;;6.70;99.90;;;;;;4940074;29;20028;-89
2022/04/10 07:43:09;;;;;;;3.88;2.47;;;6.80;99.90;;;;;;4930761;29;20023;-90
2022/04/10 07:48:19;;;;;;;4.85;2.30;;;6.80;99.90;;;;;;4959802;29;20045;-89
2022/04/10 07:50:45;;;;;;;3.55;2.20;;;6.80;99.90;;;;;;4946591;29;20669;-89
2022/04/10 07:53:11;;;;;;;5.15;2.50;;;6.80;99.90;;;;;;4966368;23;20069;-85
2022/04/10 07:55:37;;;;;;;3.13;2.17;;;6.90;99.90;;;;;;4971294;28;20049;-87
2022/04/10 07:58:02;;;;;;;2.10;1.90;;;7.00;99.90;;;;;;4974630;28;20496;-87
2022/04/10 08:00:32;;;;;;;4.97;2.50;;;6.90;99.90;;;;;;4967955;28;20027;-84
2022/04/10 08:02:58;;;;;;;5.05;2.40;;;6.90;99.90;;;;;;4963500;28;20017;-87
2022/04/10 08:05:24;;;;;;;3.60;2.08;;;7.10;99.90;;;;;;4961273;28;20037;-86
2022/04/10 08:07:50;;;;;;;3.17;2.03;;;7.10;99.90;;;;;;4965336;28;20022;-87
2022/04/10 08:10:18;;;;;;;4.13;1.77;;;7.10;99.90;;;;;;4964403;28;20054;-84
2022/04/10 08:12:44;;;;;;;4.03;1.83;;;7.30;99.90;;;;;;4949649;28;20409;-86
2022/04/10 08:15:16;;;;;;;6.43;2.60;;;7.40;99.90;;;;;;4968608;28;20060;-87
2022/04/10 08:17:58;;;;;;;3.92;2.15;;;7.60;99.90;;;;;;4963639;28;20105;-86
2022/04/10 08:21:19;;;;;;;5.90;2.25;;;7.70;99.90;;;;;;4977318;28;20082;-86
2022/04/10 08:23:50;;;;;;;3.67;2.00;;;7.80;99.90;;;;;;4905614;29;20076;-87
2022/04/10 08:30:52;;;;;;;5.80;2.22;;;8.00;99.90;;;;;;4864417;29;20045;-87
2022/04/10 08:40:50;;;;;;;4.03;1.70;;;7.80;99.90;;;;;;4740628;30;20113;-88
2022/04/10 08:43:53;;;;;;;4.82;1.55;;;7.70;99.90;;;;;;4726610;30;20053;-86
2022/04/10 08:52:36;;;;;;;2.35;1.67;;;7.80;99.90;;;;;;4907859;28;20050;-87
2022/04/10 08:55:03;;;;;;;5.13;1.75;;;8.00;99.90;;;;;;4959501;29;20023;-87
2022/04/10 08:57:28;;;;;;;5.70;2.08;;;8.10;99.90;;;;;;4982418;28;20497;-88
2022/04/10 08:59:58;;;;;;;4.53;1.90;;;8.20;99.90;;;;;;4974544;28;20031;-86
2022/04/10 09:02:24;;;;;;;2.08;1.65;;;8.20;99.90;;;;;;4973277;28;20105;-86
2022/04/10 09:04:54;;;;;;;5.97;1.55;;;8.20;99.90;;;;;;4977339;28;20027;-87
2022/04/10 09:07:21;;;;;;;5.25;1.90;;;8.20;99.90;;;;;;4954570;28;20034;-88
2022/04/10 09:09:56;;;;;;;3.13;1.73;;;8.20;99.90;;;;;;4960796;28;20035;-88
2022/04/10 09:12:23;;;;;;;4.18;2.90;;;8.20;99.90;;;;;;4966768;28;20456;-88
2022/04/10 09:14:51;;;;;;;63.72;36.45;;;8.10;99.90;;;;;;4952595;28;20059;-86
2022/04/10 09:17:19;;;;;;;4.20;2.10;;;8.20;99.90;;;;;;4966970;28;20031;-87
2022/04/10 09:19:49;;;;;;;2.90;1.85;;;8.20;99.90;;;;;;4952792;28;20028;-86
2022/04/10 09:22:19;;;;;;;1.65;1.55;;;8.30;99.90;;;;;;4956575;28;20023;-87
2022/04/10 09:25:20;;;;;;;2.85;1.80;;;8.30;99.90;;;;;;4983273;28;20046;-86
2022/04/10 09:27:49;;;;;;;4.35;1.80;;;8.30;99.90;;;;;;4926098;29;20087;-86
2022/04/10 09:30:19;;;;;;;5.15;2.03;;;8.50;99.90;;;;;;4949207;28;20038;-87
2022/04/10 09:32:52;;;;;;;3.50;1.90;;;8.70;99.90;;;;;;4980191;28;20031;-87
2022/04/10 09:35:20;;;;;;;4.95;2.08;;;8.80;99.90;;;;;;4952824;28;20070;-87
2022/04/10 09:37:54;;;;;;;6.22;2.30;;;8.90;99.90;;;;;;4959738;28;20055;-87
2022/04/10 09:40:31;;;;;;;9.82;2.92;;;8.90;99.90;;;;;;4958675;28;20038;-87
2022/04/10 09:42:57;;;;;;;5.57;2.05;;;8.90;99.90;;;;;;4963574;28;20095;-87
2022/04/10 09:45:35;;;;;;;4.25;1.85;;;8.90;99.90;;;;;;4953029;28;20027;-86
2022/04/10 09:48:23;;;;;;;4.43;2.03;;;8.80;99.90;;;;;;4963441;28;20143;-86
2022/04/10 09:50:54;;;;;;;4.15;2.25;;;8.70;99.90;;;;;;4970929;28;20027;-86
2022/04/10 09:53:21;;;;;;;3.85;2.38;;;8.50;99.90;;;;;;4974711;28;20176;-87
2022/04/10 09:55:55;;;;;;;6.50;2.42;;;8.40;99.90;;;;;;4961790;28;20094;-87
2022/04/10 09:58:21;;;;;;;2.97;2.35;;;8.30;99.90;;;;;;4965142;28;20087;-86
2022/04/10 10:00:50;;;;;;;5.53;2.60;;;8.10;99.90;;;;;;4967542;28;20022;-86
2022/04/10 10:03:17;;;;;;;6.32;3.00;;;8.00;99.90;;;;;;4966114;28;20054;-87
2022/04/10 10:05:43;;;;;;;5.05;2.72;;;7.90;99.90;;;;;;4955627;28;20125;-85
2022/04/10 10:08:09;;;;;;;4.07;2.40;;;7.80;99.90;;;;;;4961881;28;20031;-86
2022/04/10 10:10:36;;;;;;;5.40;2.38;;;7.80;99.90;;;;;;4980425;28;20037;-86
2022/04/10 10:13:05;;;;;;;5.32;2.65;;;7.80;99.90;;;;;;4979797;28;20497;-87
2022/04/10 10:15:32;;;;;;;7.22;2.92;;;7.80;99.90;;;;;;4962316;28;20038;-87
2022/04/10 10:18:00;;;;;;;5.28;2.92;;;7.70;99.90;;;;;;4956667;28;20113;-86
2022/04/10 10:20:27;;;;;;;3.53;2.33;;;7.70;99.90;;;;;;4967090;28;20027;-86
2022/04/10 10:22:53;;;;;;;5.70;2.75;;;7.60;99.90;;;;;;4961963;28;20054;-86
2022/04/10 10:25:29;;;;;;;6.97;3.22;;;7.60;99.90;;;;;;4969559;28;20027;-86
2022/04/10 10:28:35;;;;;;;7.47;3.30;;;7.60;99.90;;;;;;4953668;28;20062;-86
2022/04/10 10:31:12;;;;;;;6.75;3.63;;;7.50;99.90;;;;;;4961869;28;20031;-83
2022/04/10 10:33:47;;;;;;;8.50;3.30;;;7.50;99.90;;;;;;4967403;28;20302;-86
2022/04/10 10:36:26;;;;;;;6.30;2.95;;;7.50;99.90;;;;;;4956453;28;20047;-87
2022/04/10 10:38:54;;;;;;;5.43;3.10;;;7.50;99.90;;;;;;4954826;28;20400;-87
2022/04/10 10:41:21;;;;;;;4.78;3.13;;;7.40;99.90;;;;;;4961640;28;20053;-86
2022/04/10 10:43:47;;;;;;;5.88;3.25;;;7.30;99.90;;;;;;4954861;28;20074;-84
2022/04/10 10:46:20;;;;;;;7.72;3.53;;;7.20;99.90;;;;;;4972572;28;20037;-85
2022/04/10 10:48:46;;;;;;;5.30;3.30;;;7.10;99.90;;;;;;4983949;28;20026;-86
2022/04/10 10:51:11;;;;;;;5.93;3.75;;;7.00;99.90;;;;;;4970971;28;20033;-86
2022/04/10 10:53:53;;;;;;;5.05;3.47;;;7.00;99.90;;;;;;4970727;28;20111;-86
2022/04/10 10:56:22;;;;;;;6.45;3.70;;;7.00;99.90;;;;;;4947807;28;20130;-86
2022/04/10 10:58:49;;;;;;;4.85;3.85;;;7.00;99.90;;;;;;4942443;29;20512;-87
2022/04/10 11:01:26;;;;;;;7.30;3.88;;;7.00;99.90;;;;;;4973699;28;20022;-87
2022/04/10 11:04:06;;;;;;;6.68;4.18;;;7.10;99.90;;;;;;4983726;28;20077;-87
2022/04/10 11:06:43;;;;;;;6.18;4.32;;;7.20;99.90;;;;;;4973656;28;20389;-87
2022/04/10 11:09:23;;;;;;;5.78;3.70;;;7.20;99.90;;;;;;4949190;29;20035;-85
2022/04/10 11:11:50;;;;;;;5.53;3.80;;;7.30;99.90;;;;;;4948374;28;20034;-86
2022/04/10 11:14:36;;;;;;;4.60;3.55;;;7.40;99.90;;;;;;4947566;28;20385;-85
2022/04/10 11:17:42;;;;;;;6.38;4.28;;;7.40;99.90;;;;;;4959454;28;20039;-85
2022/04/10 11:20:09;;;;;;;6.65;3.95;;;7.50;99.90;;;;;;4959118;28;20108;-86
2022/04/10 11:22:37;;;;;;;5.50;3.95;;;7.50;99.90;;;;;;4968662;28;20019;-87
2022/04/10 11:25:08;;;;;;;6.90;4.78;;;7.60;99.90;;;;;;4973600;28;20030;-87
2022/04/10 11:27:43;;;;;;;8.35;4.53;;;7.80;99.90;;;;;;4964802;28;20110;-86
2022/04/10 11:30:34;;;;;;;5.93;4.35;;;7.90;99.90;;;;;;4945188;29;20453;-86
2022/04/10 11:33:02;;;;;;;6.00;4.63;;;8.30;99.90;;;;;;4934732;23;20051;-85
2022/04/10 11:35:31;;;;;;;7.22;4.38;;;8.80;99.90;;;;;;4985830;28;20065;-85
2022/04/10 11:38:17;;;;;;;17.23;10.82;;;9.20;99.90;;;;;;4948561;28;20040;-88
2022/04/10 11:40:48;;;;;;;15.52;9.75;;;9.40;99.90;;;;;;4952061;28;20019;-86
2022/04/10 11:43:18;;;;;;;9.80;7.20;;;9.60;99.90;;;;;;4951427;28;20452;-86
2022/04/10 11:45:45;;;;;;;4.60;4.07;;;9.80;99.90;;;;;;4958532;28;20412;-85
2022/04/10 11:48:11;;;;;;;4.18;3.78;;;10.10;99.90;;;;;;4954699;28;20042;-86
2022/04/10 11:50:38;;;;;;;5.88;3.90;;;10.40;99.90;;;;;;4953679;29;20028;-85
2022/04/10 11:53:09;;;;;;;38.63;19.13;;;10.60;99.90;;;;;;4948964;28;20034;-85
2022/04/10 11:55:45;;;;;;;6.88;4.10;;;10.80;99.90;;;;;;4954379;28;20027;-83
2022/04/10 11:58:25;;;;;;;7.32;4.65;;;11.00;99.90;;;;;;4954086;28;20027;-85
2022/04/10 12:00:52;;;;;;;4.43;3.65;;;11.20;99.90;;;;;;4967318;28;20038;-85
2022/04/10 12:03:19;;;;;;;5.72;3.63;;;11.40;99.90;;;;;;4968045;28;20102;-88
2022/04/10 12:05:45;;;;;;;5.35;3.42;;;11.60;99.90;;;;;;4967005;28;20030;-85
2022/04/10 12:08:11;;;;;;;6.78;4.28;;;11.70;99.90;;;;;;4963747;28;20039;-85
2022/04/10 12:10:36;;;;;;;4.57;3.80;;;11.80;99.90;;;;;;4979945;28;20025;-85
2022/04/10 12:13:03;;;;;;;4.88;3.33;;;11.90;99.90;;;;;;4960725;28;20081;-86
2022/04/10 12:15:29;;;;;;;7.68;4.20;;;11.90;99.90;;;;;;4978515;28;20105;-85
2022/04/10 12:18:10;;;;;;;4.47;3.20;;;12.10;99.90;;;;;;4961535;28;20078;-86
2022/04/10 12:20:40;;;;;;;5.72;3.38;;;12.10;99.90;;;;;;4967791;28;20488;-86
2022/04/10 12:23:35;;;;;;;7.85;3.90;;;11.90;99.90;;;;;;4970315;28;20146;-86
2022/04/10 12:26:02;;;;;;;3.97;3.50;;;11.80;99.90;;;;;;4944083;28;20058;-84
2022/04/10 12:28:28;;;;;;;5.35;4.18;;;11.60;99.90;;;;;;4952078;28;20492;-86
2022/04/10 12:30:58;;;;;;;7.25;3.67;;;11.40;99.90;;;;;;4943016;28;20039;-84
2022/04/10 12:33:23;;;;;;;5.55;3.72;;;11.40;99.90;;;;;;4955816;28;20030;-85
2022/04/10 12:35:49;;;;;;;7.40;3.72;;;11.40;99.90;;;;;;4971233;28;20026;-85
2022/04/10 12:38:18;;;;;;;6.32;3.80;;;11.30;99.90;;;;;;4968867;28;20030;-84
2022/04/10 12:40:44;;;;;;;6.38;3.22;;;11.40;99.90;;;;;;4970122;28;20058;-86
2022/04/10 12:43:12;;;;;;;5.90;3.35;;;11.50;99.90;;;;;;4953438;28;20030;-88
2022/04/10 12:45:39;;;;;;;6.95;3.53;;;11.60;99.90;;;;;;4974473;28;20154;-85
2022/04/10 12:48:24;;;;;;;9.25;3.67;;;11.80;99.90;;;;;;4955156;28;20074;-86
2022/04/10 12:51:10;;;;;;;7.32;3.10;;;11.90;99.90;;;;;;4965057;28;20054;-86
2022/04/10 12:53:37;;;;;;;4.10;2.72;;;12.00;99.90;;;;;;4956671;28;20063;-86
2022/04/10 12:56:04;;;;;;;6.93;3.42;;;12.10;99.90;;;;;;4940515;28;20034;-87
2022/04/10 12:58:44;;;;;;;6.00;2.90;;;12.10;99.90;;;;;;4963672;28;20030;-87
2022/04/10 13:01:29;;;;;;;4.38;3.00;;;12.20;99.90;;;;;;4964576;28;20054;-88
2022/04/10 13:03:56;;;;;;;5.75;3.50;;;12.00;99.90;;;;;;4955912;28;20019;-86
2022/04/10 13:06:27;;;;;;;7.43;3.78;;;12.00;99.90;;;;;;4957709;28;20118;-86
2022/04/10 13:09:08;;;;;;;5.90;3.40;;;12.10;99.90;;;;;;4964598;28;20038;-87
2022/04/10 13:11:36;;;;;;;6.57;3.00;;;12.40;99.90;;;;;;4963783;28;20039;-86
2022/04/10 13:14:08;;;;;;;4.65;2.70;;;12.60;99.90;;;;;;4958027;28;20032;-87
2022/04/10 13:16:35;;;;;;;4.57;3.07;;;12.50;99.40;;;;;;4969762;28;20031;-87
2022/04/10 13:19:02;;;;;;;6.93;2.97;;;12.50;99.70;;;;;;4962989;28;20270;-86
2022/04/10 13:21:28;;;;;;;4.63;3.20;;;12.50;99.30;;;;;;4980822;28;20039;-87
2022/04/10 13:23:54;;;;;;;7.05;3.00;;;12.30;98.90;;;;;;4967965;28;20046;-86
2022/04/10 13:26:29;;;;;;;4.63;2.90;;;12.30;99.50;;;;;;4958208;28;20150;-87
2022/04/10 13:28:56;;;;;;;4.57;2.35;;;12.50;99.90;;;;;;4960644;28;20049;-87
2022/04/10 13:31:22;;;;;;;4.40;2.28;;;12.60;99.90;;;;;;4960921;28;20085;-86
2022/04/10 13:33:48;;;;;;;3.90;2.50;;;12.70;99.70;;;;;;4961432;28;20395;-86
2022/04/10 13:36:14;;;;;;;3.65;2.30;;;12.60;98.80;;;;;;4975391;28;20031;-87
2022/04/10 13:38:40;;;;;;;3.08;1.75;;;12.60;98.70;;;;;;4944855;29;20055;-86
2022/04/10 13:41:06;;;;;;;3.78;2.20;;;12.50;98.20;;;;;;4946651;28;20026;-87
2022/04/10 13:43:32;;;;;;;2.65;2.00;;;12.30;97.90;;;;;;4961854;28;20029;-86
2022/04/10 13:45:58;;;;;;;4.05;2.50;;;12.20;97.40;;;;;;4959816;28;20045;-87
2022/04/10 13:48:23;;;;;;;3.72;1.80;;;11.90;97.40;;;;;;4955676;28;20023;-86
2022/04/10 13:50:50;;;;;;;3.75;2.20;;;11.80;97.60;;;;;;4961415;28;20082;-88
2022/04/10 13:53:16;;;;;;;35.38;16.77;;;11.60;97.30;;;;;;4959354;28;20130;-86
2022/04/10 13:55:42;;;;;;;11.02;5.53;;;11.40;97.00;;;;;;4980672;28;20070;-87
2022/04/10 13:58:07;;;;;;;10.02;5.40;;;11.20;96.90;;;;;;4954621;28;20054;-88
2022/04/10 14:00:33;;;;;;;5.15;2.97;;;11.00;97.10;;;;;;4966844;28;20047;-86
2022/04/10 14:03:00;;;;;;;5.57;2.95;;;10.80;97.40;;;;;;4979150;28;20037;-87
2022/04/10 14:05:26;;;;;;;5.63;2.65;;;10.70;96.70;;;;;;4970662;28;20023;-85
2022/04/10 14:07:52;;;;;;;4.32;2.72;;;10.50;96.50;;;;;;4957233;28;20037;-86
2022/04/10 14:10:17;;;;;;;5.35;2.92;;;10.40;97.00;;;;;;4977244;28;20384;-86
2022/04/10 14:12:43;;;;;;;8.32;4.68;;;10.30;97.50;;;;;;4955442;28;20024;-88
2022/04/10 14:15:09;;;;;;;4.90;2.72;;;10.30;97.80;;;;;;4975700;28;20075;-85
2022/04/10 14:17:35;;;;;;;12.95;4.55;;;10.30;97.40;;;;;;4968709;28;20027;-85
2022/04/10 14:20:01;;;;;;;10.07;4.82;;;10.20;97.60;;;;;;4962988;28;20052;-86
2022/04/10 14:22:27;;;;;;;66.15;18.35;;;10.10;97.20;;;;;;4959187;29;20023;-86
2022/04/10 14:24:52;;;;;;;11.00;3.13;;;10.00;97.30;;;;;;4963134;28;20031;-85
2022/04/10 14:27:19;;;;;;;5.70;2.92;;;9.90;97.40;;;;;;4962092;28;20038;-85
2022/04/10 14:29:46;;;;;;;4.63;2.85;;;9.80;97.20;;;;;;4954267;28;20086;-85
2022/04/10 14:32:11;;;;;;;5.70;3.00;;;9.60;97.70;;;;;;4961745;28;20031;-84
2022/04/10 14:34:37;;;;;;;4.53;3.10;;;9.60;97.80;;;;;;4978617;28;20045;-85
2022/04/10 14:37:03;;;;;;;4.88;2.78;;;9.60;98.00;;;;;;4980865;28;20049;-85
2022/04/10 14:39:29;;;;;;;5.45;2.67;;;9.60;98.10;;;;;;4976243;28;20575;-85
2022/04/10 14:41:55;;;;;;;5.50;2.83;;;9.60;98.00;;;;;;4971373;28;20023;-85
2022/04/10 14:44:20;;;;;;;6.82;3.20;;;9.60;98.00;;;;;;4965005;28;20027;-84
2022/04/10 14:46:46;;;;;;;6.88;3.40;;;9.60;98.20;;;;;;4984149;28;20031;-87
2022/04/10 14:49:12;;;;;;;6.35;3.15;;;9.60;98.30;;;;;;4962142;28;20053;-83
2022/04/10 14:51:38;;;;;;;4.95;2.78;;;9.60;98.50;;;;;;4974889;28;20031;-86
2022/04/10 14:54:08;;;;;;;6.65;2.80;;;9.70;98.80;;;;;;4960798;28;20039;-85
2022/04/10 14:56:34;;;;;;;5.55;2.83;;;9.90;98.90;;;;;;4958891;28;20038;-85
2022/04/10 14:59:00;;;;;;;6.07;2.85;;;10.00;98.90;;;;;;4964746;28;20086;-84
2022/04/10 15:01:27;;;;;;;5.60;2.75;;;10.00;98.80;;;;;;4954873;28;20526;-83
2022/04/10 15:03:53;;;;;;;17.45;6.45;;;10.00;98.70;;;;;;4954865;28;20095;-85
2022/04/10 15:06:19;;;;;;;6.63;3.13;;;10.10;98.70;;;;;;4972377;28;20031;-84
2022/04/10 15:08:44;;;;;;;3.22;2.38;;;10.10;98.50;;;;;;4957664;28;20037;-84
2022/04/10 15:11:10;;;;;;;10.70;3.75;;;10.20;98.60;;;;;;4963817;28;20033;-86
2022/04/10 15:13:35;;;;;;;6.40;3.38;;;10.20;98.20;;;;;;4953086;28;20037;-86
2022/04/10 15:16:03;;;;;;;56.67;31.45;;;10.30;98.60;;;;;;4954686;28;20523;-85
2022/04/10 15:18:29;;;;;;;13.32;5.03;;;10.30;98.70;;;;;;4962835;28;20029;-85
2022/04/10 15:20:54;;;;;;;3.50;2.63;;;10.40;98.80;;;;;;4979311;28;20058;-85
2022/04/10 15:23:20;;;;;;;4.53;2.65;;;10.40;98.40;;;;;;4970841;28;20058;-84
2022/04/10 15:25:45;;;;;;;5.07;2.38;;;10.40;98.10;;;;;;4967737;28;20534;-84
2022/04/10 15:28:11;;;;;;;3.85;2.45;;;10.40;98.10;;;;;;4957385;28;20027;-85
2022/04/10 15:30:37;;;;;;;4.28;2.30;;;10.30;98.00;;;;;;4968191;28;20031;-85
2022/04/10 15:33:03;;;;;;;4.60;2.35;;;10.20;97.50;;;;;;4974770;28;20519;-85
2022/04/10 15:35:29;;;;;;;2.92;2.00;;;10.10;97.40;;;;;;4955804;28;20023;-84
2022/04/10 15:37:54;;;;;;;4.97;2.40;;;10.00;97.30;;;;;;4956418;28;20114;-85
2022/04/10 15:40:20;;;;;;;6.32;2.53;;;9.90;97.30;;;;;;4956000;28;20074;-86
2022/04/10 15:42:46;;;;;;;2.65;2.28;;;9.80;97.70;;;;;;4962061;28;20034;-86
2022/04/10 15:45:12;;;;;;;3.45;2.50;;;9.70;97.80;;;;;;4976917;28;20051;-86
2022/04/10 15:47:41;;;;;;;3.88;2.42;;;9.70;97.90;;;;;;4961383;28;20126;-86
2022/04/10 15:50:11;;;;;;;4.88;2.80;;;9.70;97.90;;;;;;4960125;28;20034;-85
2022/04/10 15:52:41;;;;;;;2.63;2.30;;;9.70;97.80;;;;;;4958634;29;20472;-86
2022/04/10 15:55:17;;;;;;;2.67;2.22;;;9.70;97.90;;;;;;4958836;29;20030;-86
2022/04/10 15:57:46;;;;;;;4.63;2.03;;;9.60;97.90;;;;;;4961547;28;20558;-86
2022/04/10 16:00:13;;;;;;;3.85;2.50;;;9.60;98.30;;;;;;4976360;28;20027;-85
2022/04/10 16:02:44;;;;;;;3.55;2.50;;;9.60;98.30;;;;;;4978760;28;20023;-86
2022/04/10 16:05:19;;;;;;;2.93;2.07;;;9.50;98.20;;;;;;4960983;28;20023;-87
2022/04/10 16:07:46;;;;;;;4.13;2.05;;;9.50;98.40;;;;;;4959073;28;20133;-86
2022/04/10 16:10:14;;;;;;;4.05;2.35;;;9.50;98.60;;;;;;4960400;28;20023;-87
2022/04/10 16:12:39;;;;;;;3.85;2.50;;;9.50;98.60;;;;;;4961278;28;20026;-86
2022/04/10 16:15:10;;;;;;;4.10;2.33;;;9.50;98.30;;;;;;4949246;28;20072;-86
2022/04/10 16:17:36;;;;;;;6.85;2.83;;;9.40;98.30;;;;;;4951817;28;20067;-86
2022/04/10 16:20:03;;;;;;;4.32;2.45;;;9.40;98.30;;;;;;4945092;29;20094;-85
2022/04/10 16:22:29;;;;;;;5.00;2.80;;;9.30;98.40;;;;;;4972970;28;20031;-86
2022/04/10 16:24:54;;;;;;;3.78;2.85;;;9.20;98.50;;;;;;4955522;28;20034;-87
2022/04/10 16:30:07;;;;;;;12.15;6.28;;;9.20;98.50;;;;;;4964206;28;20041;-86
2022/04/10 16:32:38;;;;;;;2.72;2.10;;;9.10;98.70;;;;;;4958801;28;20031;-86
2022/04/10 16:35:05;;;;;;;5.30;4.30;;;9.10;98.70;;;;;;4962849;28;20529;-86
2022/04/10 16:37:31;;;;;;;6.90;4.97;;;9.10;98.90;;;;;;4961042;28;20026;-87
2022/04/10 16:40:00;;;;;;;4.03;2.85;;;9.10;99.00;;;;;;4967263;28;20023;-86
2022/04/10 16:42:26;;;;;;;5.03;2.50;;;9.20;99.00;;;;;;4967344;28;20027;-86
2022/04/10 16:44:51;;;;;;;3.70;1.83;;;9.10;98.80;;;;;;4968507;28;20030;-85
2022/04/10 16:47:21;;;;;;;3.85;2.30;;;9.10;98.90;;;;;;4961667;28;20030;-84
2022/04/10 16:49:51;;;;;;;4.28;2.58;;;9.10;98.80;;;;;;4965737;29;20027;-85
2022/04/10 16:52:16;;;;;;;3.88;2.67;;;9.10;98.60;;;;;;4964971;29;20404;-85
2022/04/10 16:54:48;;;;;;;2.95;2.20;;;9.10;98.60;;;;;;4966774;28;20023;-85
2022/04/10 16:57:24;;;;;;;3.20;2.10;;;9.00;98.80;;;;;;4967470;28;20042;-85
2022/04/10 16:59:50;;;;;;;2.55;1.95;;;8.90;98.80;;;;;;4964860;28;20037;-85
2022/04/10 17:02:17;;;;;;;2.92;1.98;;;8.90;98.80;;;;;;4955351;28;20047;-84
2022/04/10 17:04:43;;;;;;;2.00;1.70;;;8.90;98.90;;;;;;4979108;28;20038;-85